Time;durP1;ratioP1;P1;durP2;ratioP2;P2;SDS_P1;SDS_P2;PMS_P1;PMS_P2;Temp;Humidity;BMP_temperature;BMP_pressure;BME280_temperature;BME280_humidity;BME280_pressure;Samples;Min_cycle;Max_cycle;Signal;HPM_P1;HPM_P2
2022/01/24 00:01:15;;;;;;;;;;;-4.00;99.90;;;;;;5075692;28;19905;-78
2022/01/24 00:03:41;;;;;;;;;;;-4.10;99.90;;;;;;5076040;28;20279;-79
2022/01/24 00:06:10;;;;;;;;;;;-4.20;99.90;;;;;;5075422;28;19911;-78
2022/01/24 00:08:36;;;;;;;;;;;-4.10;99.90;;;;;;5077585;28;19923;-78
2022/01/24 00:11:06;;;;;;;;;;;-4.30;99.90;;;;;;5077220;28;19912;-77
2022/01/24 00:16:48;;;;;;;;;;;-4.20;99.90;;;;;;5077371;28;19916;-79
2022/01/24 00:27:20;;;;;;;;;;;-4.20;99.90;;;;;;5077020;28;20284;-78
2022/01/24 00:29:46;;;;;;;;;;;-4.30;99.90;;;;;;5074005;28;19920;-78
2022/01/24 00:32:12;;;;;;;;;;;-4.30;99.90;;;;;;5078315;28;19927;-79
2022/01/24 00:34:37;;;;;;;;;;;-4.40;99.90;;;;;;5079373;28;19952;-78
2022/01/24 00:37:03;;;;;;;;;;;-4.30;99.90;;;;;;5097505;28;19976;-79
2022/01/24 00:39:29;;;;;;;;;;;-4.30;99.90;;;;;;5079547;28;19939;-79
2022/01/24 00:42:09;;;;;;;;;;;-4.30;99.90;;;;;;5074482;28;19908;-76
2022/01/24 00:47:05;;;;;;;;;;;-4.20;99.90;;;;;;5068866;28;19991;-77
2022/01/24 00:54:43;;;;;;;;;;;-4.10;99.90;;;;;;5070810;28;19916;-77
2022/01/24 00:57:09;;;;;;;;;;;-4.20;99.90;;;;;;5069855;28;19905;-77
2022/01/24 00:59:35;;;;;;;;;;;-4.30;99.90;;;;;;5071114;28;19908;-79
2022/01/24 01:02:01;;;;;;;;;;;-4.40;99.90;;;;;;5072658;28;20371;-78
2022/01/24 01:04:35;;;;;;;;;;;-4.50;99.90;;;;;;5071845;28;20300;-77
2022/01/24 01:07:05;;;;;;;;;;;-4.70;99.90;;;;;;5072463;28;19931;-78
2022/01/24 01:20:33;;;;;;;;;;;-4.90;99.90;;;;;;5073166;28;19955;-77
2022/01/24 01:22:58;;;;;;;;;;;-4.90;99.90;;;;;;5071915;28;19909;-78
2022/01/24 01:25:24;;;;;;;;;;;-4.90;99.90;;;;;;5070043;28;19919;-77
2022/01/24 01:27:52;;;;;;;;;;;-4.90;99.90;;;;;;5069770;28;20262;-78
2022/01/24 01:30:22;;;;;;;;;;;-5.00;99.90;;;;;;5070079;28;20198;-77
2022/01/24 01:33:38;;;;;;;;;;;-5.00;99.90;;;;;;5070769;28;19958;-77
2022/01/24 01:57:02;;;;;;;;;;;-4.20;99.90;;;;;;5070555;28;19942;-78
2022/01/24 01:59:28;;;;;;;;;;;-4.30;99.90;;;;;;5069204;28;20373;-78
2022/01/24 02:01:53;;;;;;;;;;;-4.40;99.90;;;;;;5069266;28;19912;-77
2022/01/24 02:04:19;;;;;;;;;;;-4.50;99.90;;;;;;5068765;28;19915;-78
2022/01/24 02:06:44;;;;;;;;;;;-4.50;99.90;;;;;;5074564;28;19915;-77
2022/01/24 02:09:11;;;;;;;;;;;-4.60;99.90;;;;;;5078800;28;20307;-77
2022/01/24 02:11:37;;;;;;;;;;;-4.60;99.90;;;;;;5070879;28;20456;-78
2022/01/24 02:14:06;;;;;;;;;;;-4.50;99.90;;;;;;5069267;28;19991;-78
2022/01/24 02:21:58;;;;;;;;;;;-4.60;99.90;;;;;;5070776;28;20007;-78
2022/01/24 02:24:24;;;;;;;;;;;-4.50;99.90;;;;;;5069047;28;19911;-78
2022/01/24 02:26:54;;;;;;;;;;;-4.40;99.90;;;;;;5069971;28;19966;-79
2022/01/24 02:29:42;;;;;;;;;;;-4.30;99.90;;;;;;5069615;28;19920;-78
2022/01/24 02:32:06;;;;;;;;;;;-4.30;99.90;;;;;;5073108;28;20182;-78
2022/01/24 02:34:37;;;;;;;;;;;-4.40;99.90;;;;;;5072141;28;20377;-78
2022/01/24 02:37:04;;;;;;;;;;;-4.50;99.90;;;;;;5071328;28;20038;-78
2022/01/24 02:50:24;;;;;;;;;;;-4.60;99.90;;;;;;5069877;28;20058;-78
2022/01/24 02:52:50;;;;;;;;;;;-4.50;99.90;;;;;;5068896;28;19967;-77
2022/01/24 02:55:15;;;;;;;;;;;-4.50;99.90;;;;;;5068471;28;20376;-77
2022/01/24 02:57:41;;;;;;;;;;;-4.50;99.90;;;;;;5069434;28;20388;-78
2022/01/24 03:00:07;;;;;;;;;;;-4.50;99.90;;;;;;5069071;28;19909;-77
2022/01/24 03:02:32;;;;;;;;;;;-4.50;99.90;;;;;;5068271;28;19908;-76
2022/01/24 03:04:58;;;;;;;;;;;-4.60;99.90;;;;;;5069525;28;19958;-78
2022/01/24 03:07:25;;;;;;;;;;;-4.70;99.90;;;;;;5067993;28;20373;-77
2022/01/24 03:09:54;;;;;;;;;;;-4.80;99.90;;;;;;5070443;28;19915;-77
2022/01/24 03:12:39;;;;;;;;;;;-4.90;99.90;;;;;;5072790;28;20104;-78
2022/01/24 03:15:05;;;;;;;;;;;-4.90;99.90;;;;;;5072361;28;19905;-79
2022/01/24 03:17:30;;;;;;;;;;;-5.00;99.90;;;;;;5072282;28;19905;-78
2022/01/24 03:19:56;;;;;;;;;;;-5.10;99.90;;;;;;5073335;28;20330;-78
2022/01/24 03:22:22;;;;;;;;;;;-5.10;99.90;;;;;;5072290;28;19904;-77
2022/01/24 03:24:49;;;;;;;;;;;-5.20;99.90;;;;;;5072121;28;19908;-77
2022/01/24 03:27:14;;;;;;;;;;;-5.20;99.90;;;;;;5073450;28;19933;-78
2022/01/24 03:29:40;;;;;;;;;;;-5.30;99.90;;;;;;5072216;28;20015;-77
2022/01/24 03:32:05;;;;;;;;;;;-5.30;99.90;;;;;;5072075;28;19919;-77
2022/01/24 03:34:31;;;;;;;;;;;-5.40;99.90;;;;;;5072025;28;19905;-77
2022/01/24 03:36:56;;;;;;;;;;;-5.50;99.90;;;;;;5079923;28;19916;-78
2022/01/24 03:39:22;;;;;;;;;;;-5.50;99.90;;;;;;5079409;28;20383;-77
2022/01/24 03:41:47;;;;;;;;;;;-5.50;99.90;;;;;;5071435;28;19909;-77
2022/01/24 03:44:15;;;;;;;;;;;-5.50;99.90;;;;;;5072283;28;19952;-78
2022/01/24 03:46:49;;;;;;;;;;;-5.60;99.90;;;;;;5071208;28;20344;-77
2022/01/24 03:49:45;;;;;;;;;;;-5.60;99.90;;;;;;5072260;28;20421;-78
2022/01/24 03:52:06;;;;;;;;;;;-5.70;99.90;;;;;;5072723;28;20022;-78
2022/01/24 03:54:32;;;;;;;;;;;-5.60;99.90;;;;;;5073419;28;19935;-78
2022/01/24 03:56:57;;;;;;;;;;;-5.60;99.90;;;;;;5071233;28;20300;-76
2022/01/24 03:59:23;;;;;;;;;;;-5.50;99.90;;;;;;5070385;28;20368;-77
2022/01/24 04:01:48;;;;;;;;;;;-5.20;99.90;;;;;;5071617;28;19915;-77
2022/01/24 04:04:14;;;;;;;;;;;-5.10;99.90;;;;;;5069757;28;19916;-77
2022/01/24 04:06:39;;;;;;;;;;;-5.00;99.90;;;;;;5071928;28;19904;-77
2022/01/24 04:09:05;;;;;;;;;;;-5.00;99.90;;;;;;5071726;28;19909;-77
2022/01/24 04:11:35;;;;;;;;;;;-5.00;99.90;;;;;;5073987;28;20180;-78
2022/01/24 04:14:21;;;;;;;;;;;-5.10;99.90;;;;;;5074159;28;19909;-78
2022/01/24 04:16:53;;;;;;;;;;;-5.10;99.90;;;;;;5073102;28;19908;-78
2022/01/24 04:21:19;;;;;;;;;;;-5.20;99.90;;;;;;5073989;28;19911;-78
2022/01/24 04:22:04;;;;;;;;;;;-5.20;99.90;;;;;;5073475;28;19972;-78
2022/01/24 04:24:29;;;;;;;;;;;-5.30;99.90;;;;;;5072327;28;20019;-77
2022/01/24 04:26:55;;;;;;;;;;;-5.30;99.90;;;;;;5072072;28;19911;-77
2022/01/24 04:29:20;;;;;;;;;;;-5.30;99.90;;;;;;5073962;28;19969;-77
2022/01/24 04:31:46;;;;;;;;;;;-5.30;99.90;;;;;;5075137;28;19962;-78
2022/01/24 04:34:12;;;;;;;;;;;-5.20;99.90;;;;;;5079651;28;20261;-78
2022/01/24 04:36:37;;;;;;;;;;;-5.20;99.90;;;;;;5077868;28;19983;-78
2022/01/24 04:39:03;;;;;;;;;;;-5.20;99.90;;;;;;5071312;28;19915;-78
2022/01/24 04:41:33;;;;;;;;;;;-5.20;99.90;;;;;;5069579;28;19991;-77
2022/01/24 04:44:19;;;;;;;;;;;-5.10;99.90;;;;;;5071439;28;19928;-77
2022/01/24 04:46:58;;;;;;;;;;;-5.20;99.90;;;;;;5071327;28;20683;-78
2022/01/24 04:54:43;;;;;;;;;;;-5.30;99.90;;;;;;5072140;28;19904;-77
2022/01/24 04:57:13;;;;;;;;;;;-5.40;99.90;;;;;;5071633;28;19961;-78
2022/01/24 04:59:39;;;;;;;;;;;-5.40;99.90;;;;;;5072025;28;19940;-77
2022/01/24 05:02:06;;;;;;;;;;;-5.40;99.90;;;;;;5071530;28;19908;-78
2022/01/24 05:04:31;;;;;;;;;;;-5.50;99.90;;;;;;5071643;28;19911;-78
2022/01/24 05:06:57;;;;;;;;;;;-5.40;99.90;;;;;;5071119;28;19908;-77
2022/01/24 05:09:23;;;;;;;;;;;-5.40;99.90;;;;;;5087896;28;20007;-77
2022/01/24 05:25:22;;;;;;;;;;;-5.70;99.90;;;;;;5071064;28;19919;-77
2022/01/24 05:27:47;;;;;;;;;;;-5.70;99.90;;;;;;5071015;28;19923;-79
2022/01/24 05:30:14;;;;;;;;;;;-5.80;99.90;;;;;;5073568;28;20457;-78
2022/01/24 05:32:40;;;;;;;;;;;-5.80;99.90;;;;;;5066971;28;19920;-76
2022/01/24 05:35:05;;;;;;;;;;;-5.80;99.90;;;;;;5067901;28;20437;-77
2022/01/24 05:37:31;;;;;;;;;;;-5.80;99.90;;;;;;5068411;28;19904;-77
2022/01/24 05:39:56;;;;;;;;;;;-5.90;99.90;;;;;;5068875;28;19908;-76
2022/01/24 05:42:22;;;;;;;;;;;-6.00;99.90;;;;;;5068230;28;19905;-76
2022/01/24 05:44:49;;;;;;;;;;;-6.00;99.90;;;;;;5067290;28;19943;-76
2022/01/24 05:47:15;;;;;;;;;;;-6.00;99.90;;;;;;5069199;28;20527;-76
2022/01/24 05:49:40;;;;;;;;;;;-6.00;99.90;;;;;;5068977;28;20011;-78
2022/01/24 05:52:09;;;;;;;;;;;-6.00;99.90;;;;;;5067839;28;19954;-77
2022/01/24 05:54:41;;;;;;;;;;;-6.00;99.90;;;;;;5069610;28;19908;-77
2022/01/24 05:57:07;;;;;;;;;;;-6.10;99.90;;;;;;5069425;28;19908;-77
2022/01/24 05:59:32;;;;;;;;;;;-6.10;99.90;;;;;;5070081;28;19911;-78
2022/01/24 06:01:58;;;;;;;;;;;-6.20;99.90;;;;;;5068547;28;20279;-77
2022/01/24 06:04:24;;;;;;;;;;;-6.20;99.90;;;;;;5069417;28;20387;-78
2022/01/24 06:06:49;;;;;;;;;;;-6.20;99.90;;;;;;5067976;28;20451;-77
2022/01/24 06:09:15;;;;;;;;;;;-6.10;99.90;;;;;;5069879;28;19909;-78
2022/01/24 06:11:40;;;;;;;;;;;-6.10;99.90;;;;;;5068090;28;19917;-77
2022/01/24 06:14:06;;;;;;;;;;;-6.10;99.90;;;;;;5069877;28;19908;-78
2022/01/24 06:16:32;;;;;;;;;;;-6.10;99.90;;;;;;5067801;28;20323;-77
2022/01/24 06:18:57;;;;;;;;;;;-6.10;99.90;;;;;;5068554;28;19949;-77
2022/01/24 06:21:23;;;;;;;;;;;-6.10;99.90;;;;;;5068582;28;19997;-77
2022/01/24 06:23:48;;;;;;;;;;;-6.10;99.90;;;;;;5068418;28;20007;-78
2022/01/24 06:26:14;;;;;;;;;;;-6.20;99.90;;;;;;5070648;28;19912;-78
2022/01/24 06:28:40;;;;;;;;;;;-6.10;99.90;;;;;;5071270;28;19913;-78
2022/01/24 06:31:05;;;;;;;;;;;-6.20;99.90;;;;;;5068211;28;19912;-78
2022/01/24 06:33:31;;;;;;;;;;;-6.20;99.90;;;;;;5069192;28;19908;-77
2022/01/24 06:35:56;;;;;;;;;;;-6.20;99.90;;;;;;5071611;28;19912;-79
2022/01/24 06:38:22;;;;;;;;;;;-6.20;99.90;;;;;;5072852;28;19939;-78
2022/01/24 06:40:47;;;;;;;;;;;-6.30;99.90;;;;;;5076752;28;19904;-78
2022/01/24 06:43:13;;;;;;;;;;;-6.30;99.90;;;;;;5071422;28;19961;-78
2022/01/24 06:45:39;;;;;;;;;;;-6.30;99.90;;;;;;5068099;28;19909;-78
2022/01/24 06:48:04;;;;;;;;;;;-6.30;99.90;;;;;;5070427;28;20578;-78
2022/01/24 06:50:30;;;;;;;;;;;-6.20;99.90;;;;;;5069778;28;20396;-78
2022/01/24 06:52:55;;;;;;;;;;;-6.20;99.90;;;;;;5068124;28;20391;-78
2022/01/24 06:55:21;;;;;;;;;;;-6.20;99.90;;;;;;5069418;28;20022;-77
2022/01/24 06:57:46;;;;;;;;;;;-6.20;99.90;;;;;;5069025;28;20594;-78
2022/01/24 07:00:12;;;;;;;;;;;-6.10;99.90;;;;;;5070014;28;19908;-78
2022/01/24 07:02:37;;;;;;;;;;;-6.00;99.90;;;;;;5070940;28;20424;-78
2022/01/24 07:05:04;;;;;;;;;;;-5.80;99.90;;;;;;5072283;28;19904;-79
2022/01/24 07:07:30;;;;;;;;;;;-5.30;99.90;;;;;;5073974;28;19904;-76
2022/01/24 07:09:55;;;;;;;;;;;-4.40;99.90;;;;;;5068516;28;20537;-76
2022/01/24 07:12:22;;;;;;;;;;;-3.50;99.90;;;;;;5067185;28;20533;-76
2022/01/24 07:14:49;;;;;;;;;;;-2.80;94.00;;;;;;5068269;28;19974;-77
2022/01/24 07:17:30;;;;;;;;;;;-2.50;91.70;;;;;;5069841;28;19954;-77
2022/01/24 07:19:55;;;;;;;;;;;-2.30;89.90;;;;;;5066045;28;19905;-76
2022/01/24 07:22:21;;;;;;;;;;;-2.10;88.70;;;;;;5066011;28;19908;-76
2022/01/24 07:24:46;;;;;;;;;;;-1.80;89.20;;;;;;5065214;28;20646;-75
2022/01/24 07:27:12;;;;;;;;;;;-1.50;85.50;;;;;;5065744;28;20106;-76
2022/01/24 07:29:37;;;;;;;;;;;-1.20;78.30;;;;;;5066058;28;19920;-76
2022/01/24 07:32:03;;;;;;;;;;;-0.90;76.70;;;;;;5066502;28;19916;-75
2022/01/24 07:34:29;;;;;;;;;;;-0.60;75.60;;;;;;5067084;28;19954;-75
2022/01/24 07:36:55;;;;;;;;;;;-0.40;69.60;;;;;;5066228;28;19951;-75
2022/01/24 07:39:21;;;;;;;;;;;0.10;68.20;;;;;;5067396;28;19908;-75
2022/01/24 07:41:47;;;;;;;;;;;0.30;67.30;;;;;;5066503;28;19908;-77
2022/01/24 07:44:14;;;;;;;;;;;0.60;66.60;;;;;;5067770;28;19961;-75
2022/01/24 07:46:40;;;;;;;;;;;0.70;62.20;;;;;;5065985;28;19912;-76
2022/01/24 07:49:11;;;;;;;;;;;0.90;61.60;;;;;;5067197;28;19931;-76
2022/01/24 07:51:36;;;;;;;;;;;0.90;62.30;;;;;;5065961;28;19927;-75
2022/01/24 07:54:02;;;;;;;;;;;0.70;59.30;;;;;;5065617;28;20300;-76
2022/01/24 07:56:28;;;;;;;;;;;0.50;61.30;;;;;;5069487;28;19911;-76
2022/01/24 07:58:53;;;;;;;;;;;0.40;64.40;;;;;;5068381;28;19909;-76
2022/01/24 08:01:19;;;;;;;;;;;0.40;63.60;;;;;;5068060;28;20336;-76
2022/01/24 08:03:46;;;;;;;;;;;0.60;62.60;;;;;;5070616;28;19920;-76
2022/01/24 08:06:12;;;;;;;;;;;1.00;59.10;;;;;;5071769;28;19931;-76
2022/01/24 08:08:38;;;;;;;;;;;1.40;55.90;;;;;;5076780;28;20368;-75
2022/01/24 08:11:03;;;;;;;;;;;1.60;54.50;;;;;;5070493;28;20464;-76
2022/01/24 08:13:29;;;;;;;;;;;1.90;51.20;;;;;;5071901;28;19908;-75
2022/01/24 08:15:54;;;;;;;;;;;2.10;50.30;;;;;;5071109;28;19924;-76
2022/01/24 08:18:20;;;;;;;;;;;2.20;49.50;;;;;;5069414;28;19908;-76
2022/01/24 08:20:45;;;;;;;;;;;2.60;49.10;;;;;;5068901;28;19908;-75
2022/01/24 08:23:11;;;;;;;;;;;2.70;47.10;;;;;;5070986;28;19958;-78
2022/01/24 08:25:37;;;;;;;;;;;2.90;46.80;;;;;;5070053;28;19965;-77
2022/01/24 08:28:03;;;;;;;;;;;3.00;46.80;;;;;;5076412;28;19938;-79
2022/01/24 08:30:29;;;;;;;;;;;3.10;46.50;;;;;;5073377;28;20339;-79
2022/01/24 08:32:55;;;;;;;;;;;3.20;47.20;;;;;;5070796;28;19918;-77
2022/01/24 08:35:21;;;;;;;;;;;3.50;45.20;;;;;;5070412;28;19904;-76
2022/01/24 08:37:46;;;;;;;;;;;3.30;44.80;;;;;;5070543;28;19912;-78
2022/01/24 08:40:20;;;;;;;;;;;3.20;44.60;;;;;;5074159;28;19908;-78
2022/01/24 08:42:55;;;;;;;;;;;3.50;46.90;;;;;;5072728;28;20284;-78
2022/01/24 08:48:05;;;;;;;;;;;4.60;45.80;;;;;;5075120;28;19958;-79
2022/01/24 08:50:30;;;;;;;;;;;5.00;44.90;;;;;;5074681;28;19920;-78
2022/01/24 08:52:59;;;;;;;;;;;5.20;43.30;;;;;;5073765;28;19909;-79
2022/01/24 08:55:32;;;;;;;;;;;5.60;42.70;;;;;;5071863;28;19935;-78
2022/01/24 08:57:58;;;;;;;;;;;5.60;42.60;;;;;;5071411;28;19915;-80
2022/01/24 09:00:24;;;;;;;;;;;6.10;42.00;;;;;;5067213;28;20473;-80
2022/01/24 09:02:50;;;;;;;;;;;6.40;40.50;;;;;;5068701;28;19919;-78
2022/01/24 09:05:17;;;;;;;;;;;6.70;40.20;;;;;;5067597;28;19912;-77
2022/01/24 09:07:44;;;;;;;;;;;6.90;40.10;;;;;;5066795;28;20367;-79
2022/01/24 09:10:10;;;;;;;;;;;7.00;38.70;;;;;;5066385;28;19912;-78
2022/01/24 09:12:36;;;;;;;;;;;6.80;38.70;;;;;;5067175;28;19912;-80
2022/01/24 09:15:02;;;;;;;;;;;6.90;38.10;;;;;;5066573;28;19915;-79
2022/01/24 09:17:28;;;;;;;;;;;6.70;38.30;;;;;;5066157;28;19908;-87
2022/01/24 09:19:54;;;;;;;;;;;6.10;38.60;;;;;;5066387;28;20300;-79
2022/01/24 09:22:19;;;;;;;;;;;5.50;39.80;;;;;;5066055;28;20273;-77
2022/01/24 09:24:45;;;;;;;;;;;5.00;39.90;;;;;;5067040;28;19956;-78
2022/01/24 09:27:10;;;;;;;;;;;4.70;40.60;;;;;;5070186;28;19997;-80
2022/01/24 09:29:36;;;;;;;;;;;4.30;41.20;;;;;;5077254;28;19924;-77
2022/01/24 09:32:01;;;;;;;;;;;3.90;41.30;;;;;;5079399;28;19983;-79
2022/01/24 09:34:27;;;;;;;;;;;3.60;42.90;;;;;;5081293;28;19912;-77
2022/01/24 09:36:52;;;;;;;;;;;3.60;43.20;;;;;;5074403;28;19915;-80
2022/01/24 09:39:18;;;;;;;;;;;3.40;43.40;;;;;;5074632;28;19909;-78
2022/01/24 09:41:45;;;;;;;;;;;3.20;43.40;;;;;;5073392;28;19931;-78
2022/01/24 09:44:10;;;;;;;;;;;3.10;43.90;;;;;;5070384;28;19912;-78
2022/01/24 09:46:37;;;;;;;;;;;2.90;43.20;;;;;;5073756;28;19912;-78
2022/01/24 09:49:03;;;;;;;;;;;2.70;44.10;;;;;;5074673;28;20673;-79
2022/01/24 09:51:28;;;;;;;;;;;2.50;45.00;;;;;;5076183;28;19916;-79
2022/01/24 09:53:55;;;;;;;;;;;2.50;45.00;;;;;;5073539;28;19918;-79
2022/01/24 09:56:24;;;;;;;;;;;2.40;45.20;;;;;;5076251;28;19911;-78
2022/01/24 09:58:49;;;;;;;;;;;2.30;45.50;;;;;;5073057;28;19908;-80
2022/01/24 10:01:18;;;;;;;;;;;2.20;45.50;;;;;;5081792;28;19915;-79
2022/01/24 10:04:02;;;;;;;;;;;2.10;45.50;;;;;;5080640;28;20483;-77
2022/01/24 10:06:47;;;;;;;;;;;2.10;45.50;;;;;;5072817;28;19915;-78
2022/01/24 10:09:13;;;;;;;;;;;2.00;45.80;;;;;;5078928;28;19930;-80
2022/01/24 10:11:38;;;;;;;;;;;1.90;46.00;;;;;;5083075;28;20369;-79
2022/01/24 10:16:53;;;;;;;;;;;1.70;46.70;;;;;;5080531;28;19915;-80
2022/01/24 10:19:22;;;;;;;;;;;1.70;47.20;;;;;;5079443;28;19904;-79
2022/01/24 10:21:52;;;;;;;;;;;1.50;46.80;;;;;;5077729;28;19911;-80
2022/01/24 10:24:37;;;;;;;;;;;1.30;46.90;;;;;;5073854;28;19905;-79
2022/01/24 10:27:04;;;;;;;;;;;1.20;46.40;;;;;;5077009;28;19911;-80
2022/01/24 10:29:29;;;;;;;;;;;1.00;47.10;;;;;;5072391;28;20392;-79
2022/01/24 10:31:55;;;;;;;;;;;1.10;48.50;;;;;;5074589;28;19923;-79
2022/01/24 10:34:34;;;;;;;;;;;1.00;47.20;;;;;;5072093;28;19916;-79
2022/01/24 10:37:00;;;;;;;;;;;0.90;47.50;;;;;;5074632;28;20311;-79
2022/01/24 10:39:44;;;;;;;;;;;0.80;48.40;;;;;;5074999;28;20368;-78
2022/01/24 10:44:53;;;;;;;;;;;1.00;49.30;;;;;;5075015;28;19915;-79
2022/01/24 10:47:23;;;;;;;;;;;1.00;48.90;;;;;;5073895;28;20377;-80
2022/01/24 10:49:49;;;;;;;;;;;1.00;49.40;;;;;;5074807;28;20300;-79
2022/01/24 10:52:16;;;;;;;;;;;1.00;50.00;;;;;;5074343;28;19919;-79
2022/01/24 10:54:41;;;;;;;;;;;1.00;50.30;;;;;;5074370;28;19915;-79
2022/01/24 10:57:07;;;;;;;;;;;1.00;49.80;;;;;;5075776;28;19909;-78
2022/01/24 10:59:33;;;;;;;;;;;1.00;50.00;;;;;;5074934;28;20463;-78
2022/01/24 11:02:02;;;;;;;;;;;0.90;50.40;;;;;;5075849;28;19908;-79
2022/01/24 11:04:27;;;;;;;;;;;1.00;50.70;;;;;;5074636;28;19909;-79
2022/01/24 11:06:54;;;;;;;;;;;1.00;50.60;;;;;;5075470;28;20328;-79
2022/01/24 11:09:22;;;;;;;;;;;0.90;50.30;;;;;;5073195;28;19970;-79
2022/01/24 11:11:52;;;;;;;;;;;0.80;50.90;;;;;;5073364;28;20367;-79
2022/01/24 11:14:19;;;;;;;;;;;0.70;50.70;;;;;;5073378;28;20379;-78
2022/01/24 11:16:45;;;;;;;;;;;0.60;51.10;;;;;;5080025;28;19908;-79
2022/01/24 11:19:17;;;;;;;;;;;0.60;51.20;;;;;;5073362;28;19908;-79
2022/01/24 11:21:44;;;;;;;;;;;0.40;51.30;;;;;;5073242;28;19904;-80
2022/01/24 11:24:10;;;;;;;;;;;0.50;51.20;;;;;;5069469;28;20281;-77
2022/01/24 11:26:36;;;;;;;;;;;0.50;51.10;;;;;;5068913;28;19915;-77
2022/01/24 11:29:03;;;;;;;;;;;0.60;51.60;;;;;;5066657;28;20414;-77
2022/01/24 11:31:40;;;;;;;;;;;0.40;51.80;;;;;;5070166;28;19928;-76
2022/01/24 11:34:13;;;;;;;;;;;0.40;52.70;;;;;;5073424;28;19913;-78
2022/01/24 11:36:40;;;;;;;;;;;0.50;53.00;;;;;;5071954;28;19908;-76
2022/01/24 11:39:06;;;;;;;;;;;0.50;53.00;;;;;;5074519;28;19908;-77
2022/01/24 11:41:35;;;;;;;;;;;0.50;53.00;;;;;;5074238;28;19912;-75
2022/01/24 11:44:10;;;;;;;;;;;0.60;53.10;;;;;;5072832;28;19904;-77
2022/01/24 11:46:37;;;;;;;;;;;0.60;53.10;;;;;;5073029;28;19912;-77
2022/01/24 11:49:10;;;;;;;;;;;0.60;53.50;;;;;;5073099;28;20293;-78
2022/01/24 11:51:37;;;;;;;;;;;0.60;53.70;;;;;;5074482;28;19920;-76
2022/01/24 11:54:03;;;;;;;;;;;0.70;54.00;;;;;;5073744;28;19905;-77
2022/01/24 11:56:31;;;;;;;;;;;0.80;53.00;;;;;;5074369;28;19915;-77
2022/01/24 11:59:15;;;;;;;;;;;0.70;52.00;;;;;;5072517;28;19904;-77
2022/01/24 12:01:41;;;;;;;;;;;0.70;51.80;;;;;;5073266;28;19909;-76
2022/01/24 12:04:06;;;;;;;;;;;0.70;52.10;;;;;;5072977;28;19914;-77
2022/01/24 12:06:52;;;;;;;;;;;0.60;51.90;;;;;;5072894;28;19935;-77
2022/01/24 12:09:23;;;;;;;;;;;0.60;51.90;;;;;;5070181;28;19999;-77
2022/01/24 12:11:50;;;;;;;;;;;0.50;52.40;;;;;;5070762;28;19962;-76
2022/01/24 12:14:23;;;;;;;;;;;0.50;52.90;;;;;;5073366;28;19916;-76
2022/01/24 12:16:49;;;;;;;;;;;0.60;53.60;;;;;;5073924;28;19915;-77
2022/01/24 12:19:28;;;;;;;;;;;0.60;53.90;;;;;;5075619;28;20383;-77
2022/01/24 12:21:54;;;;;;;;;;;0.60;53.80;;;;;;5074911;28;19909;-77
2022/01/24 12:24:21;;;;;;;;;;;0.70;53.90;;;;;;5074613;28;19912;-78
2022/01/24 12:26:48;;;;;;;;;;;0.80;53.80;;;;;;5075146;28;20380;-76
2022/01/24 12:29:13;;;;;;;;;;;0.80;53.70;;;;;;5071325;28;19913;-77
2022/01/24 12:31:50;;;;;;;;;;;0.80;53.70;;;;;;5073780;28;19916;-77
2022/01/24 12:34:15;;;;;;;;;;;0.90;53.20;;;;;;5075464;28;20004;-77
2022/01/24 12:36:47;;;;;;;;;;;0.90;53.30;;;;;;5075305;28;19936;-77
2022/01/24 12:39:23;;;;;;;;;;;0.90;53.50;;;;;;5075435;28;19995;-76
2022/01/24 12:41:56;;;;;;;;;;;0.90;53.70;;;;;;5073661;28;19916;-77
2022/01/24 12:47:09;;;;;;;;;;;1.00;53.30;;;;;;5080948;28;19934;-77
2022/01/24 12:49:35;;;;;;;;;;;1.00;52.80;;;;;;5074174;28;19973;-78
2022/01/24 12:52:02;;;;;;;;;;;1.00;52.80;;;;;;5071853;28;19939;-76
2022/01/24 12:54:32;;;;;;;;;;;1.00;52.60;;;;;;5069826;28;20219;-76
2022/01/24 12:57:03;;;;;;;;;;;0.90;53.00;;;;;;5069702;28;20006;-77
2022/01/24 12:59:29;;;;;;;;;;;0.90;53.00;;;;;;5064947;28;19995;-77
2022/01/24 13:01:57;;;;;;;;;;;0.90;52.60;;;;;;5071299;28;20011;-77
2022/01/24 13:04:37;;;;;;;;;;;0.80;52.10;;;;;;5069831;28;20016;-76
2022/01/24 13:07:04;;;;;;;;;;;0.80;52.80;;;;;;5070045;28;19908;-77
2022/01/24 13:09:29;;;;;;;;;;;0.80;53.50;;;;;;5071330;28;19904;-77
2022/01/24 13:12:03;;;;;;;;;;;0.80;53.60;;;;;;5070957;28;20335;-77
2022/01/24 13:14:38;;;;;;;;;;;0.90;53.60;;;;;;5069806;28;20015;-75
2022/01/24 13:25:14;;;;;;;;;;;1.00;53.00;;;;;;5069426;28;19994;-77
2022/01/24 13:27:40;;;;;;;;;;;1.00;53.20;;;;;;5068956;28;19915;-79
2022/01/24 13:30:07;;;;;;;;;;;1.00;53.70;;;;;;5067470;28;19917;-76
2022/01/24 13:32:43;;;;;;;;;;;1.00;53.60;;;;;;5067791;28;20428;-78
2022/01/24 13:35:16;;;;;;;;;;;1.00;53.60;;;;;;5067761;28;19909;-77
2022/01/24 13:37:42;;;;;;;;;;;1.10;54.20;;;;;;5068784;28;19911;-76
2022/01/24 13:40:08;;;;;;;;;;;1.10;54.40;;;;;;5069074;28;19919;-77
2022/01/24 13:42:34;;;;;;;;;;;1.10;54.40;;;;;;5070393;28;19968;-76
2022/01/24 13:44:59;;;;;;;;;;;1.10;54.20;;;;;;5069178;28;19908;-76
2022/01/24 13:47:25;;;;;;;;;;;1.10;53.90;;;;;;5071737;28;19908;-75
2022/01/24 13:49:51;;;;;;;;;;;1.10;54.00;;;;;;5070273;28;20354;-76
2022/01/24 13:52:18;;;;;;;;;;;1.20;54.00;;;;;;5069551;28;19923;-75
2022/01/24 13:54:44;;;;;;;;;;;1.10;54.50;;;;;;5068724;28;19909;-77
2022/01/24 13:57:16;;;;;;;;;;;1.20;54.40;;;;;;5071763;28;19908;-77
2022/01/24 13:59:42;;;;;;;;;;;1.10;54.10;;;;;;5070530;28;19915;-76
2022/01/24 14:02:12;;;;;;;;;;;1.10;54.00;;;;;;5071351;28;19926;-77
2022/01/24 14:04:43;;;;;;;;;;;1.00;54.20;;;;;;5073612;28;19924;-76
2022/01/24 14:07:09;;;;;;;;;;;1.10;54.40;;;;;;5073035;28;19908;-76
2022/01/24 14:09:40;;;;;;;;;;;1.00;54.40;;;;;;5071817;28;19915;-76
2022/01/24 14:12:06;;;;;;;;;;;1.00;54.50;;;;;;5070747;28;19981;-76
2022/01/24 14:14:44;;;;;;;;;;;0.90;54.60;;;;;;5075402;28;19909;-77
2022/01/24 14:17:23;;;;;;;;;;;0.90;54.60;;;;;;5075953;28;20007;-76
2022/01/24 14:19:53;;;;;;;;;;;0.90;54.50;;;;;;5071018;28;19905;-74
2022/01/24 14:22:19;;;;;;;;;;;0.90;54.40;;;;;;5068938;28;19905;-76
2022/01/24 14:24:44;;;;;;;;;;;0.80;54.70;;;;;;5070092;28;20308;-76
2022/01/24 14:27:10;;;;;;;;;;;0.70;54.70;;;;;;5070567;28;19912;-77
2022/01/24 14:29:38;;;;;;;;;;;0.70;55.00;;;;;;5069596;28;19940;-76
2022/01/24 14:32:10;;;;;;;;;;;0.60;55.20;;;;;;5068937;28;20467;-77
2022/01/24 14:34:36;;;;;;;;;;;0.60;55.40;;;;;;5070364;28;19998;-76
2022/01/24 14:37:07;;;;;;;;;;;0.50;55.70;;;;;;5071219;28;19924;-76
2022/01/24 14:39:43;;;;;;;;;;;0.50;56.10;;;;;;5069375;28;20010;-76
2022/01/24 14:42:11;;;;;;;;;;;0.40;56.30;;;;;;5069390;28;19915;-76
2022/01/24 14:44:57;;;;;;;;;;;0.40;56.30;;;;;;5070943;28;19938;-76
2022/01/24 14:47:24;;;;;;;;;;;0.30;56.60;;;;;;5071704;28;20342;-76
2022/01/24 14:49:50;;;;;;;;;;;0.20;56.90;;;;;;5069985;28;19954;-77
2022/01/24 14:52:19;;;;;;;;;;;0.20;57.40;;;;;;5069814;28;19963;-77
2022/01/24 14:54:44;;;;;;;;;;;0.10;57.90;;;;;;5071620;28;19919;-77
2022/01/24 14:57:12;;;;;;;;;;;0.00;58.30;;;;;;5071322;28;19999;-76
2022/01/24 14:59:41;;;;;;;;;;;0.00;58.60;;;;;;5071510;28;19905;-76
2022/01/24 15:02:07;;;;;;;;;;;-0.10;59.10;;;;;;5069061;28;19957;-76
2022/01/24 15:04:33;;;;;;;;;;;-0.20;59.40;;;;;;5069696;28;19912;-76
2022/01/24 15:06:58;;;;;;;;;;;-0.30;60.00;;;;;;5068756;28;19909;-76
2022/01/24 15:09:25;;;;;;;;;;;-0.40;60.40;;;;;;5070371;28;19912;-75
2022/01/24 15:11:52;;;;;;;;;;;-0.40;61.80;;;;;;5071078;28;19908;-76
2022/01/24 15:14:41;;;;;;;;;;;-0.50;61.70;;;;;;5070126;28;19931;-76
2022/01/24 15:17:26;;;;;;;;;;;-0.70;62.30;;;;;;5070598;28;20315;-77
2022/01/24 15:25:23;;;;;;;;;;;-1.00;65.00;;;;;;5072710;28;19912;-76
2022/01/24 15:27:51;;;;;;;;;;;-1.10;66.00;;;;;;5071550;28;19919;-78
2022/01/24 15:30:19;;;;;;;;;;;-1.20;66.60;;;;;;5071007;28;20013;-78
2022/01/24 15:32:45;;;;;;;;;;;-1.30;67.20;;;;;;5069175;28;19912;-77
2022/01/24 15:35:12;;;;;;;;;;;-1.50;68.00;;;;;;5069998;28;19908;-77
2022/01/24 15:37:38;;;;;;;;;;;-1.60;69.50;;;;;;5069266;28;19912;-77
2022/01/24 15:40:04;;;;;;;;;;;-1.70;70.10;;;;;;5070031;28;19962;-77
2022/01/24 15:47:33;;;;;;;;;;;-1.90;72.00;;;;;;5073452;28;20349;-77
2022/01/24 15:50:00;;;;;;;;;;;-2.00;71.90;;;;;;5068013;28;19915;-77
2022/01/24 15:52:25;;;;;;;;;;;-2.10;73.30;;;;;;5067517;28;19978;-78
2022/01/24 15:54:53;;;;;;;;;;;-2.10;75.50;;;;;;5067182;28;20642;-78
2022/01/24 16:00:06;;;;;;;;;;;-2.10;78.80;;;;;;5068319;28;19957;-78
2022/01/24 16:02:32;;;;;;;;;;;-2.10;77.40;;;;;;5068010;28;20425;-77
2022/01/24 16:04:58;;;;;;;;;;;-2.10;77.80;;;;;;5066564;28;20436;-77
2022/01/24 16:07:24;;;;;;;;;;;-2.10;77.90;;;;;;5066145;28;19908;-77
2022/01/24 16:09:49;;;;;;;;;;;-2.20;78.80;;;;;;5067415;28;20000;-78
2022/01/24 16:12:15;;;;;;;;;;;-2.30;80.70;;;;;;5066674;28;20012;-77
2022/01/24 16:14:41;;;;;;;;;;;-2.40;81.20;;;;;;5066665;28;19976;-78
2022/01/24 16:17:06;;;;;;;;;;;-2.50;83.20;;;;;;5069059;28;19905;-77
2022/01/24 16:19:38;;;;;;;;;;;-2.50;84.10;;;;;;5070206;28;19908;-77
2022/01/24 16:27:01;;;;;;;;;;;-2.80;88.30;;;;;;5071951;28;19912;-77
2022/01/24 16:29:27;;;;;;;;;;;-2.80;88.40;;;;;;5070630;28;19951;-78
2022/01/24 16:31:53;;;;;;;;;;;-2.90;90.00;;;;;;5072133;28;19921;-78